Time;durP1;ratioP1;P1;durP2;ratioP2;P2;SDS_P1;SDS_P2;PMS_P1;PMS_P2;Temp;Humidity;BMP_temperature;BMP_pressure;BME280_temperature;BME280_humidity;BME280_pressure;Samples;Min_cycle;Max_cycle;Signal;HPM_P1;HPM_P2
2022/02/08 00:00:36;;;;;;;;;;;19.20;38.40;;;;;;5075863;28;20310;-65
2022/02/08 00:03:03;;;;;;;;;;;19.20;38.40;;;;;;5075917;28;19942;-65
2022/02/08 00:05:28;;;;;;;;;;;19.20;38.40;;;;;;5075829;28;19912;-65
2022/02/08 00:07:55;;;;;;;;;;;19.20;38.40;;;;;;5075672;28;19916;-65
2022/02/08 00:10:21;;;;;;;;;;;19.20;38.40;;;;;;5075825;28;19932;-65
2022/02/08 00:12:46;;;;;;;;;;;19.20;38.40;;;;;;5075716;28;20356;-65
2022/02/08 00:15:12;;;;;;;;;;;19.20;38.40;;;;;;5057708;28;20450;-65
2022/02/08 00:17:38;;;;;;;;;;;19.20;38.30;;;;;;5075523;28;19916;-65
2022/02/08 00:20:04;;;;;;;;;;;19.20;38.30;;;;;;5075729;28;20360;-65
2022/02/08 00:22:30;;;;;;;;;;;19.20;38.30;;;;;;5075398;28;20282;-65
2022/02/08 00:24:56;;;;;;;;;;;19.20;38.40;;;;;;5075798;28;19912;-65
2022/02/08 00:27:22;;;;;;;;;;;19.20;38.40;;;;;;5075528;28;19915;-65
2022/02/08 00:29:47;;;;;;;;;;;19.20;38.40;;;;;;5075594;28;19947;-67
2022/02/08 00:32:13;;;;;;;;;;;19.20;38.30;;;;;;5056338;28;19948;-65
2022/02/08 00:34:38;;;;;;;;;;;19.20;38.40;;;;;;5075340;28;19909;-65
2022/02/08 00:37:03;;;;;;;;;;;19.20;38.30;;;;;;5075156;28;19913;-65
2022/02/08 00:39:31;;;;;;;;;;;19.20;38.30;;;;;;5075185;28;19908;-66
2022/02/08 00:42:03;;;;;;;;;;;19.20;38.30;;;;;;5075324;28;19940;-65
2022/02/08 00:44:35;;;;;;;;;;;19.20;38.30;;;;;;5057196;28;20284;-65
2022/02/08 00:47:16;;;;;;;;;;;19.20;38.30;;;;;;5075154;28;19908;-65
2022/02/08 00:49:43;;;;;;;;;;;19.20;38.30;;;;;;5057113;28;20360;-65
2022/02/08 00:52:15;;;;;;;;;;;19.20;38.30;;;;;;5075042;28;20311;-65
2022/02/08 00:54:44;;;;;;;;;;;19.20;38.30;;;;;;5075232;28;20085;-65
2022/02/08 00:57:10;;;;;;;;;;;19.20;38.30;;;;;;5074681;28;19995;-65
2022/02/08 00:59:35;;;;;;;;;;;19.20;38.30;;;;;;5056825;28;19916;-65
2022/02/08 01:02:01;;;;;;;;;;;19.20;38.30;;;;;;5074595;28;19921;-65
2022/02/08 01:04:26;;;;;;;;;;;19.20;38.30;;;;;;5074938;28;19908;-65
2022/02/08 01:06:54;;;;;;;;;;;19.20;38.30;;;;;;5074685;28;20356;-64
2022/02/08 01:09:26;;;;;;;;;;;19.20;38.30;;;;;;5056714;28;19955;-64
2022/02/08 01:11:54;;;;;;;;;;;19.20;38.30;;;;;;5074610;28;20272;-64
2022/02/08 01:14:22;;;;;;;;;;;19.20;38.30;;;;;;5074492;28;19908;-64
2022/02/08 01:16:48;;;;;;;;;;;19.10;38.30;;;;;;5074304;28;20429;-64
2022/02/08 01:19:15;;;;;;;;;;;19.20;38.30;;;;;;5074370;28;19909;-64
2022/02/08 01:21:41;;;;;;;;;;;19.20;38.20;;;;;;5074321;28;19962;-64
2022/02/08 01:24:06;;;;;;;;;;;19.20;38.20;;;;;;5074351;28;19908;-64
2022/02/08 01:26:33;;;;;;;;;;;19.20;38.30;;;;;;5074227;28;20257;-64
2022/02/08 01:31:24;;;;;;;;;;;19.20;38.30;;;;;;5074104;28;19915;-64
2022/02/08 01:36:36;;;;;;;;;;;19.20;38.30;;;;;;5074227;28;19908;-64
2022/02/08 01:39:13;;;;;;;;;;;19.20;38.30;;;;;;5074312;28;19951;-64
2022/02/08 01:51:51;;;;;;;;;;;19.20;38.30;;;;;;5074112;28;19909;-65
2022/02/08 01:54:17;;;;;;;;;;;19.10;38.20;;;;;;5073789;28;19908;-64
2022/02/08 01:56:42;;;;;;;;;;;19.10;38.30;;;;;;5055785;28;19936;-64
2022/02/08 01:59:08;;;;;;;;;;;19.10;38.30;;;;;;5073715;28;19916;-64
2022/02/08 02:01:33;;;;;;;;;;;19.10;38.30;;;;;;5073862;28;19927;-64
2022/02/08 02:03:59;;;;;;;;;;;19.10;38.30;;;;;;5073591;28;19908;-64
2022/02/08 02:06:24;;;;;;;;;;;19.10;38.30;;;;;;5073839;28;20003;-64
2022/02/08 02:08:50;;;;;;;;;;;19.10;38.30;;;;;;5073518;28;19959;-64
2022/02/08 02:11:15;;;;;;;;;;;19.10;38.30;;;;;;5073577;28;19969;-64
2022/02/08 02:13:47;;;;;;;;;;;19.10;38.30;;;;;;5073509;28;19909;-64
2022/02/08 02:16:17;;;;;;;;;;;19.10;38.30;;;;;;5073522;28;19909;-64
2022/02/08 02:18:42;;;;;;;;;;;19.10;38.30;;;;;;5055510;28;19923;-64
2022/02/08 02:21:08;;;;;;;;;;;19.10;38.30;;;;;;5073396;28;20271;-64
2022/02/08 02:23:33;;;;;;;;;;;19.10;38.40;;;;;;5073404;28;19916;-65
2022/02/08 02:25:59;;;;;;;;;;;19.10;38.40;;;;;;5073384;28;20318;-64
2022/02/08 02:28:26;;;;;;;;;;;19.10;38.40;;;;;;5073313;28;19908;-64
2022/02/08 02:30:51;;;;;;;;;;;19.10;38.40;;;;;;5073367;28;19912;-64
2022/02/08 02:33:17;;;;;;;;;;;19.10;38.40;;;;;;5055331;28;19909;-64
2022/02/08 02:35:43;;;;;;;;;;;19.10;38.40;;;;;;5073203;28;19909;-64
2022/02/08 02:38:09;;;;;;;;;;;19.10;38.40;;;;;;5073148;28;19923;-65
2022/02/08 02:40:36;;;;;;;;;;;19.10;38.40;;;;;;5073241;28;20278;-64
2022/02/08 02:43:01;;;;;;;;;;;19.10;38.40;;;;;;5055185;28;19953;-64
2022/02/08 02:45:27;;;;;;;;;;;19.10;38.40;;;;;;5073136;28;19908;-64
2022/02/08 02:47:54;;;;;;;;;;;19.10;38.40;;;;;;5073183;28;19934;-64
2022/02/08 02:50:20;;;;;;;;;;;19.10;38.40;;;;;;5073109;28;19950;-64
2022/02/08 02:52:46;;;;;;;;;;;19.10;38.40;;;;;;5073351;28;19916;-64
2022/02/08 02:55:14;;;;;;;;;;;19.10;38.40;;;;;;5055216;28;19912;-64
2022/02/08 02:57:40;;;;;;;;;;;19.10;38.50;;;;;;5077050;28;19917;-64
2022/02/08 03:00:11;;;;;;;;;;;19.10;38.50;;;;;;5076928;28;19924;-64
2022/02/08 03:02:46;;;;;;;;;;;19.10;38.50;;;;;;5077140;28;20429;-64
2022/02/08 03:05:24;;;;;;;;;;;19.10;38.50;;;;;;5077059;28;19915;-65
2022/02/08 03:18:47;;;;;;;;;;;19.00;38.50;;;;;;5077119;28;20086;-65
2022/02/08 03:21:12;;;;;;;;;;;19.10;38.50;;;;;;5076638;28;20439;-64
2022/02/08 03:23:39;;;;;;;;;;;19.10;38.50;;;;;;5076886;28;20007;-64
2022/02/08 03:26:04;;;;;;;;;;;19.00;38.50;;;;;;5076627;28;20287;-64
2022/02/08 03:28:30;;;;;;;;;;;19.00;38.60;;;;;;5076739;28;19915;-64
2022/02/08 03:30:55;;;;;;;;;;;19.00;38.60;;;;;;5076498;28;19908;-65
2022/02/08 03:33:22;;;;;;;;;;;19.00;38.60;;;;;;5058557;28;20294;-65
2022/02/08 03:35:50;;;;;;;;;;;19.00;38.60;;;;;;5058530;28;19915;-65
2022/02/08 03:38:18;;;;;;;;;;;19.10;38.60;;;;;;5058408;28;19920;-64
2022/02/08 03:40:51;;;;;;;;;;;19.00;38.60;;;;;;5058382;28;19915;-64
2022/02/08 03:45:50;;;;;;;;;;;19.00;38.60;;;;;;5076246;28;20003;-64
2022/02/08 03:48:18;;;;;;;;;;;19.00;38.70;;;;;;5076162;28;19912;-65
2022/02/08 03:50:46;;;;;;;;;;;19.00;38.70;;;;;;5076093;28;20002;-64
2022/02/08 03:53:12;;;;;;;;;;;19.00;38.70;;;;;;5058124;28;19931;-64
2022/02/08 03:55:38;;;;;;;;;;;19.00;38.70;;;;;;5076086;28;19909;-64
2022/02/08 03:58:03;;;;;;;;;;;19.00;38.70;;;;;;5075962;28;19962;-64
2022/02/08 04:00:34;;;;;;;;;;;19.00;38.70;;;;;;5075818;28;19917;-64
2022/02/08 04:02:59;;;;;;;;;;;19.00;38.70;;;;;;5076302;28;20311;-64
2022/02/08 04:07:55;;;;;;;;;;;19.00;38.80;;;;;;5075767;28;19909;-64
2022/02/08 04:10:24;;;;;;;;;;;19.00;38.80;;;;;;5075794;28;19962;-64
2022/02/08 04:15:45;;;;;;;;;;;19.00;38.80;;;;;;5075710;28;19915;-64
2022/02/08 04:39:36;;;;;;;;;;;19.00;38.90;;;;;;5075578;28;20003;-64
2022/02/08 04:42:06;;;;;;;;;;;19.00;38.90;;;;;;5074973;28;20355;-64
2022/02/08 04:44:36;;;;;;;;;;;19.00;38.90;;;;;;5075200;28;19915;-64
2022/02/08 04:47:12;;;;;;;;;;;19.00;38.90;;;;;;5074999;28;20038;-64
2022/02/08 04:49:38;;;;;;;;;;;19.00;38.90;;;;;;5075015;28;20414;-64
2022/02/08 04:52:06;;;;;;;;;;;19.00;38.90;;;;;;5074978;28;19909;-64
2022/02/08 05:43:20;;;;;;;;;;;19.30;38.80;;;;;;5074035;28;19915;-64
2022/02/08 05:46:43;;;;;;;;;;;19.30;38.80;;;;;;5074000;28;19912;-64
2022/02/08 05:48:38;;;;;;;;;;;19.40;38.80;;;;;;5071348;28;19909;-64
2022/02/08 05:51:11;;;;;;;;;;;19.40;38.80;;;;;;5073802;28;19908;-64
2022/02/08 05:56:05;;;;;;;;;;;19.40;38.80;;;;;;5074039;28;20537;-64
2022/02/08 05:58:31;;;;;;;;;;;19.40;38.70;;;;;;5073703;28;19963;-64
2022/02/08 06:00:56;;;;;;;;;;;19.40;38.80;;;;;;5073972;28;19959;-64
2022/02/08 06:03:21;;;;;;;;;;;19.50;38.70;;;;;;5073924;28;19908;-64
2022/02/08 06:05:49;;;;;;;;;;;19.40;38.80;;;;;;5073620;28;20324;-64
2022/02/08 06:08:14;;;;;;;;;;;19.50;38.80;;;;;;5073633;28;19930;-64
2022/02/08 06:10:48;;;;;;;;;;;19.50;38.80;;;;;;5055619;28;19908;-65
2022/02/08 06:13:15;;;;;;;;;;;19.50;38.80;;;;;;5040176;28;20283;-64
2022/02/08 06:15:42;;;;;;;;;;;19.50;38.80;;;;;;5073529;28;19961;-64
2022/02/08 06:18:07;;;;;;;;;;;19.50;38.80;;;;;;5073386;28;19916;-64
2022/02/08 06:20:33;;;;;;;;;;;19.50;38.80;;;;;;5073456;28;19916;-64
2022/02/08 06:22:59;;;;;;;;;;;19.50;38.80;;;;;;5073368;28;19943;-65
2022/02/08 06:25:25;;;;;;;;;;;19.50;38.80;;;;;;5073439;28;19908;-65
2022/02/08 06:27:51;;;;;;;;;;;19.50;38.80;;;;;;5073324;28;20253;-64
2022/02/08 06:30:18;;;;;;;;;;;19.50;38.80;;;;;;5054450;28;19908;-64
2022/02/08 06:32:44;;;;;;;;;;;19.50;38.80;;;;;;5073219;28;20303;-64
2022/02/08 06:38:08;;;;;;;;;;;19.50;38.90;;;;;;5059966;28;19916;-65
2022/02/08 06:40:36;;;;;;;;;;;19.60;38.90;;;;;;5073199;28;20348;-64
2022/02/08 06:43:03;;;;;;;;;;;19.60;38.80;;;;;;5073197;28;19909;-64
2022/02/08 06:45:29;;;;;;;;;;;19.50;38.90;;;;;;5073152;28;19919;-65
2022/02/08 06:47:54;;;;;;;;;;;19.60;38.90;;;;;;5055130;28;19913;-64
2022/02/08 06:50:20;;;;;;;;;;;19.60;38.90;;;;;;5073168;28;20331;-64
2022/02/08 06:52:45;;;;;;;;;;;19.60;38.90;;;;;;5073339;28;20389;-64
2022/02/08 06:55:12;;;;;;;;;;;19.60;38.90;;;;;;5073108;28;19915;-64
2022/02/08 06:57:49;;;;;;;;;;;19.60;38.90;;;;;;5073040;28;20440;-64
2022/02/08 07:00:18;;;;;;;;;;;19.60;38.90;;;;;;5072880;28;19920;-64
2022/02/08 07:02:43;;;;;;;;;;;19.60;38.90;;;;;;5055095;28;19915;-64
2022/02/08 07:05:09;;;;;;;;;;;19.60;39.00;;;;;;5054930;28;19909;-64
2022/02/08 07:07:34;;;;;;;;;;;19.60;39.00;;;;;;5072844;28;20306;-64
2022/02/08 07:10:00;;;;;;;;;;;19.60;39.00;;;;;;5072835;28;19954;-65
2022/02/08 07:12:25;;;;;;;;;;;19.60;39.00;;;;;;5072709;28;19963;-64
2022/02/08 07:14:51;;;;;;;;;;;19.60;39.00;;;;;;5072698;28;19909;-65
2022/02/08 07:17:16;;;;;;;;;;;19.70;39.00;;;;;;5072696;28;19924;-64
2022/02/08 07:19:42;;;;;;;;;;;19.60;39.00;;;;;;5073008;28;19908;-64
2022/02/08 07:22:07;;;;;;;;;;;19.70;39.00;;;;;;5072855;28;20376;-64
2022/02/08 07:24:32;;;;;;;;;;;19.70;39.00;;;;;;5054747;28;19909;-64
2022/02/08 07:26:58;;;;;;;;;;;19.70;39.00;;;;;;5072680;28;19955;-64
2022/02/08 07:29:27;;;;;;;;;;;19.70;39.00;;;;;;5089481;28;19920;-65
2022/02/08 07:31:57;;;;;;;;;;;19.70;39.00;;;;;;5080942;28;19965;-65
2022/02/08 07:34:36;;;;;;;;;;;19.70;39.00;;;;;;5100954;28;19912;-65
2022/02/08 07:37:11;;;;;;;;;;;19.80;39.00;;;;;;5100947;28;19916;-66
2022/02/08 07:39:44;;;;;;;;;;;19.80;39.20;;;;;;5093688;28;20012;-63
2022/02/08 07:42:10;;;;;;;;;;;19.90;39.00;;;;;;5077227;28;19998;-65
2022/02/08 07:44:36;;;;;;;;;;;20.00;38.80;;;;;;5094453;28;20345;-65
2022/02/08 07:47:01;;;;;;;;;;;19.90;39.00;;;;;;5077573;28;19919;-64
2022/02/08 07:49:27;;;;;;;;;;;19.80;39.00;;;;;;5081394;28;20100;-64
2022/02/08 07:51:53;;;;;;;;;;;19.80;39.10;;;;;;5096170;28;20451;-65
2022/02/08 07:54:18;;;;;;;;;;;19.80;39.10;;;;;;5094487;28;20410;-66
2022/02/08 07:56:43;;;;;;;;;;;19.80;39.20;;;;;;5101144;28;20388;-64
2022/02/08 07:59:09;;;;;;;;;;;19.80;39.20;;;;;;5081533;28;19928;-62
2022/02/08 08:01:34;;;;;;;;;;;19.90;39.20;;;;;;5096089;28;19927;-64
2022/02/08 08:04:00;;;;;;;;;;;19.90;39.30;;;;;;5111046;28;20336;-63
2022/02/08 08:06:25;;;;;;;;;;;19.90;39.30;;;;;;5097473;28;19935;-62
2022/02/08 08:08:51;;;;;;;;;;;20.00;39.30;;;;;;5095112;28;19960;-63
2022/02/08 08:11:22;;;;;;;;;;;20.00;39.30;;;;;;5099209;28;19916;-65
2022/02/08 08:14:00;;;;;;;;;;;20.00;39.30;;;;;;5094240;28;19927;-62
2022/02/08 08:16:38;;;;;;;;;;;20.00;39.40;;;;;;5102190;28;19969;-65
2022/02/08 08:19:18;;;;;;;;;;;20.00;39.30;;;;;;5093077;28;20006;-63
2022/02/08 08:21:43;;;;;;;;;;;20.00;39.50;;;;;;5095310;28;19912;-66
2022/02/08 08:24:09;;;;;;;;;;;20.00;39.50;;;;;;5080997;28;19923;-66
2022/02/08 08:26:35;;;;;;;;;;;20.00;39.60;;;;;;5096119;28;20367;-64
2022/02/08 08:29:01;;;;;;;;;;;20.00;39.50;;;;;;5093431;28;19916;-65
2022/02/08 08:31:27;;;;;;;;;;;20.00;39.50;;;;;;5089723;28;19908;-65
2022/02/08 08:33:52;;;;;;;;;;;20.10;39.50;;;;;;5098067;28;19919;-66
2022/02/08 08:36:19;;;;;;;;;;;20.10;39.60;;;;;;5100090;28;20343;-65
2022/02/08 08:38:49;;;;;;;;;;;20.00;39.80;;;;;;5109127;28;19924;-66
2022/02/08 08:41:34;;;;;;;;;;;20.10;39.70;;;;;;5076027;28;19912;-64
2022/02/08 08:51:50;;;;;;;;;;;20.10;40.00;;;;;;5110492;28;19912;-63
2022/02/08 08:54:16;;;;;;;;;;;20.10;39.90;;;;;;5093371;28;20014;-64
2022/02/08 08:56:42;;;;;;;;;;;20.10;39.90;;;;;;5101770;28;20341;-65
2022/02/08 08:59:14;;;;;;;;;;;20.10;39.90;;;;;;5100939;28;19955;-66
2022/02/08 09:01:39;;;;;;;;;;;20.10;40.00;;;;;;5092897;28;19920;-64
2022/02/08 09:04:05;;;;;;;;;;;20.10;40.10;;;;;;5094762;28;19922;-64
2022/02/08 09:06:33;;;;;;;;;;;20.20;40.00;;;;;;5074698;28;19912;-64
2022/02/08 09:08:58;;;;;;;;;;;20.10;40.20;;;;;;5093214;28;19919;-64
2022/02/08 09:16:34;;;;;;;;;;;20.10;40.30;;;;;;5096778;28;19991;-66
2022/02/08 09:19:30;;;;;;;;;;;20.20;40.20;;;;;;5103896;28;19958;-64
2022/02/08 09:27:51;;;;;;;;;;;20.20;40.30;;;;;;5093095;28;19916;-66
2022/02/08 09:30:19;;;;;;;;;;;20.20;40.30;;;;;;5102393;28;19950;-63
2022/02/08 09:35:11;;;;;;;;;;;20.20;40.30;;;;;;5096017;28;20391;-63
2022/02/08 09:37:37;;;;;;;;;;;20.20;40.30;;;;;;5099906;28;19924;-64
2022/02/08 09:40:03;;;;;;;;;;;20.20;40.30;;;;;;5108258;28;20313;-63
2022/02/08 09:42:29;;;;;;;;;;;20.20;40.30;;;;;;5099109;28;20371;-64
2022/02/08 09:44:54;;;;;;;;;;;20.30;40.40;;;;;;5096177;28;19919;-64
2022/02/08 09:47:31;;;;;;;;;;;20.20;40.40;;;;;;5107498;28;20006;-65
2022/02/08 09:50:03;;;;;;;;;;;20.30;40.40;;;;;;5101395;28;19935;-64
2022/02/08 09:52:29;;;;;;;;;;;20.30;40.40;;;;;;5095138;28;19927;-64
2022/02/08 09:54:54;;;;;;;;;;;20.30;40.50;;;;;;5095473;28;20471;-63
2022/02/08 09:57:20;;;;;;;;;;;20.30;40.40;;;;;;5093624;28;19916;-64
2022/02/08 09:59:47;;;;;;;;;;;20.30;40.40;;;;;;5092033;28;19935;-65
2022/02/08 10:02:16;;;;;;;;;;;20.30;40.50;;;;;;5074608;28;19955;-64
2022/02/08 10:04:42;;;;;;;;;;;20.30;40.50;;;;;;5072507;28;19959;-64
2022/02/08 10:07:13;;;;;;;;;;;20.30;40.50;;;;;;5091791;28;19970;-65
2022/02/08 10:09:39;;;;;;;;;;;20.30;40.60;;;;;;5091057;28;19916;-64
2022/02/08 10:12:05;;;;;;;;;;;20.30;40.50;;;;;;5092578;28;19985;-64
2022/02/08 10:21:11;;;;;;;;;;;20.30;40.50;;;;;;5089974;28;19970;-64
2022/02/08 10:22:49;;;;;;;;;;;20.40;40.50;;;;;;5079592;28;19955;-65
2022/02/08 10:25:24;;;;;;;;;;;20.40;40.60;;;;;;5088968;28;19923;-64
2022/02/08 10:28:11;;;;;;;;;;;20.30;40.50;;;;;;5091326;28;20045;-64
2022/02/08 10:37:38;;;;;;;;;;;20.40;40.60;;;;;;5090727;28;19923;-65
2022/02/08 10:38:57;;;;;;;;;;;20.40;40.60;;;;;;5097298;28;20061;-62
2022/02/08 10:41:22;;;;;;;;;;;20.40;40.60;;;;;;5102503;28;20553;-63
2022/02/08 10:43:55;;;;;;;;;;;20.30;40.70;;;;;;5096851;28;19912;-62
2022/02/08 10:46:21;;;;;;;;;;;20.30;40.90;;;;;;5108278;28;20292;-62
2022/02/08 10:48:47;;;;;;;;;;;20.30;40.70;;;;;;5090332;28;19975;-63
2022/02/08 10:51:17;;;;;;;;;;;20.40;40.60;;;;;;5091666;28;19916;-63
2022/02/08 10:53:55;;;;;;;;;;;20.40;40.70;;;;;;5097963;28;19917;-63
2022/02/08 10:56:24;;;;;;;;;;;20.40;40.60;;;;;;5093834;28;19973;-63
2022/02/08 10:59:07;;;;;;;;;;;20.40;40.70;;;;;;5092145;28;20386;-63
2022/02/08 11:01:35;;;;;;;;;;;20.50;40.80;;;;;;5103789;28;19926;-64
2022/02/08 11:04:08;;;;;;;;;;;20.40;40.70;;;;;;5093354;28;20002;-62
2022/02/08 11:06:48;;;;;;;;;;;20.50;40.70;;;;;;5107976;28;19908;-62
2022/02/08 11:20:44;;;;;;;;;;;20.50;40.90;;;;;;5097815;28;20551;-64
2022/02/08 11:23:17;;;;;;;;;;;20.50;41.00;;;;;;5097358;28;19916;-63
2022/02/08 11:25:45;;;;;;;;;;;20.40;41.00;;;;;;5103099;28;20397;-63
2022/02/08 11:28:26;;;;;;;;;;;20.40;40.90;;;;;;5111664;28;19912;-64
2022/02/08 11:45:36;;;;;;;;;;;20.50;41.10;;;;;;5102188;28;20317;-64
2022/02/08 11:48:13;;;;;;;;;;;20.40;41.10;;;;;;5098724;28;20347;-64
2022/02/08 11:51:06;;;;;;;;;;;20.50;41.10;;;;;;5098503;28;19946;-64
2022/02/08 11:56:21;;;;;;;;;;;20.40;41.20;;;;;;5099347;28;20374;-64
2022/02/08 11:59:21;;;;;;;;;;;20.40;41.20;;;;;;5095085;28;20047;-63
2022/02/08 12:07:08;;;;;;;;;;;20.50;41.30;;;;;;5082382;28;19916;-62
2022/02/08 12:31:29;;;;;;;;;;;20.50;41.30;;;;;;5089896;28;19934;-64
2022/02/08 12:53:37;;;;;;;;;;;20.50;41.50;;;;;;5098783;28;19919;-64
2022/02/08 12:56:07;;;;;;;;;;;20.50;41.40;;;;;;5093746;28;20256;-64
2022/02/08 12:58:58;;;;;;;;;;;20.50;41.40;;;;;;5095046;28;19919;-64
2022/02/08 13:04:11;;;;;;;;;;;20.50;41.60;;;;;;5099805;28;19912;-63
2022/02/08 13:14:32;;;;;;;;;;;20.50;41.50;;;;;;5070228;28;19916;-64
2022/02/08 13:16:14;;;;;;;;;;;20.50;41.50;;;;;;5101313;28;19995;-64
2022/02/08 14:01:29;;;;;;;;;;;20.50;41.60;;;;;;5109535;28;19934;-63
2022/02/08 14:02:23;;;;;;;;;;;20.50;41.70;;;;;;5091735;28;20398;-64
2022/02/08 14:07:40;;;;;;;;;;;20.50;41.60;;;;;;5073550;28;20360;-63
2022/02/08 14:10:25;;;;;;;;;;;20.70;41.40;;;;;;5069433;28;19912;-63
2022/02/08 14:15:49;;;;;;;;;;;20.50;41.50;;;;;;5072845;28;19909;-64
2022/02/08 14:18:39;;;;;;;;;;;20.50;41.60;;;;;;5072265;28;19916;-64
2022/02/08 14:24:00;;;;;;;;;;;20.50;41.70;;;;;;5071437;28;19909;-64
2022/02/08 14:29:30;;;;;;;;;;;20.50;41.70;;;;;;5071439;28;19986;-64
2022/02/08 14:32:15;;;;;;;;;;;20.50;41.60;;;;;;5071133;28;19947;-64
2022/02/08 14:37:27;;;;;;;;;;;20.50;41.70;;;;;;5072326;28;19939;-64
2022/02/08 15:09:59;;;;;;;;;;;20.40;41.70;;;;;;5076961;28;20317;-64
2022/02/08 15:12:28;;;;;;;;;;;20.40;41.60;;;;;;5076965;28;19912;-64
2022/02/08 15:17:48;;;;;;;;;;;20.40;41.60;;;;;;5022042;28;19953;-63
2022/02/08 15:20:14;;;;;;;;;;;20.50;41.60;;;;;;5076967;28;20392;-64
2022/02/08 15:22:40;;;;;;;;;;;20.50;41.60;;;;;;5076421;28;19909;-63
2022/02/08 15:25:10;;;;;;;;;;;20.40;41.60;;;;;;5076397;28;19908;-64
2022/02/08 15:27:37;;;;;;;;;;;20.40;41.60;;;;;;5076712;28;19908;-63
2022/02/08 15:30:03;;;;;;;;;;;20.40;41.60;;;;;;5076466;28;19990;-63
2022/02/08 15:32:28;;;;;;;;;;;20.50;41.60;;;;;;5076385;28;19959;-64
2022/02/08 15:34:54;;;;;;;;;;;20.50;41.50;;;;;;5076366;28;19977;-63
2022/02/08 15:37:19;;;;;;;;;;;20.40;41.60;;;;;;5074947;28;19947;-64
2022/02/08 15:39:45;;;;;;;;;;;20.40;41.50;;;;;;5075001;28;19912;-64
2022/02/08 15:42:10;;;;;;;;;;;20.40;41.60;;;;;;5058151;28;19908;-63
2022/02/08 15:44:38;;;;;;;;;;;20.40;41.50;;;;;;5076425;28;19912;-63
2022/02/08 15:47:08;;;;;;;;;;;20.50;41.50;;;;;;5058223;28;19909;-64
2022/02/08 15:49:39;;;;;;;;;;;20.50;41.50;;;;;;5076047;28;19908;-63
2022/02/08 15:52:23;;;;;;;;;;;20.50;41.50;;;;;;5076235;28;20210;-64
2022/02/08 15:54:51;;;;;;;;;;;20.50;41.50;;;;;;5057840;28;19908;-64
2022/02/08 16:07:38;;;;;;;;;;;20.40;41.50;;;;;;5076156;28;19915;-63
2022/02/08 16:10:10;;;;;;;;;;;20.50;41.50;;;;;;5076273;28;19908;-64
2022/02/08 16:15:29;;;;;;;;;;;20.50;41.40;;;;;;5075700;28;19919;-64
2022/02/08 16:23:21;;;;;;;;;;;20.40;41.50;;;;;;5075592;28;19908;-63
2022/02/08 16:28:23;;;;;;;;;;;20.50;41.40;;;;;;5075699;28;19908;-63
2022/02/08 16:45:53;;;;;;;;;;;20.50;41.50;;;;;;5075510;28;19916;-64
2022/02/08 16:55:42;;;;;;;;;;;20.50;41.50;;;;;;5075221;28;19962;-63
2022/02/08 17:00:34;;;;;;;;;;;20.40;41.50;;;;;;5074738;28;20011;-64
2022/02/08 17:03:04;;;;;;;;;;;20.40;41.50;;;;;;5074771;28;19909;-64
2022/02/08 17:05:30;;;;;;;;;;;20.50;41.40;;;;;;5074670;28;19955;-64
2022/02/08 17:07:56;;;;;;;;;;;20.50;41.50;;;;;;5074568;28;20081;-63
2022/02/08 17:12:58;;;;;;;;;;;20.50;41.40;;;;;;5074673;28;19909;-63
2022/02/08 17:15:42;;;;;;;;;;;20.40;41.40;;;;;;5074020;28;19909;-64
2022/02/08 17:18:43;;;;;;;;;;;20.40;41.40;;;;;;5072989;28;19961;-63
2022/02/08 17:47:56;;;;;;;;;;;20.50;41.40;;;;;;5073837;28;19909;-64
2022/02/08 17:50:21;;;;;;;;;;;20.40;41.40;;;;;;5074333;28;20065;-65
2022/02/08 17:52:47;;;;;;;;;;;20.50;41.40;;;;;;5074081;28;20026;-64
2022/02/08 17:55:14;;;;;;;;;;;20.50;41.40;;;;;;5073957;28;20365;-64
2022/02/08 17:57:40;;;;;;;;;;;20.50;41.40;;;;;;5073660;28;19916;-64
2022/02/08 18:00:07;;;;;;;;;;;20.40;41.40;;;;;;5073709;28;19958;-64
2022/02/08 18:02:32;;;;;;;;;;;20.40;41.40;;;;;;5073676;28;19915;-64
2022/02/08 18:05:00;;;;;;;;;;;20.50;41.40;;;;;;5073524;28;19908;-63
2022/02/08 18:07:25;;;;;;;;;;;20.50;41.30;;;;;;5073495;28;20433;-64
2022/02/08 18:09:52;;;;;;;;;;;20.50;41.40;;;;;;5055467;28;19913;-64
2022/02/08 18:12:19;;;;;;;;;;;20.40;41.40;;;;;;5073362;28;19999;-63
2022/02/08 18:14:50;;;;;;;;;;;20.40;41.40;;;;;;5055426;28;20368;-63
2022/02/08 18:17:21;;;;;;;;;;;20.40;41.40;;;;;;5073469;28;20014;-64
2022/02/08 18:19:52;;;;;;;;;;;20.40;41.40;;;;;;5055538;28;19948;-64
2022/02/08 18:25:01;;;;;;;;;;;20.50;41.40;;;;;;5073427;28;19951;-64
2022/02/08 18:27:38;;;;;;;;;;;20.40;41.40;;;;;;5055394;28;20002;-64
2022/02/08 18:57:23;;;;;;;;;;;20.50;41.40;;;;;;5072867;28;19978;-63
2022/02/08 19:16:23;;;;;;;;;;;20.50;41.40;;;;;;5073321;28;19913;-64
2022/02/08 19:19:17;;;;;;;;;;;20.40;41.40;;;;;;5072828;28;19928;-64
2022/02/08 19:21:46;;;;;;;;;;;20.50;41.40;;;;;;5072778;28;19909;-64
2022/02/08 19:24:18;;;;;;;;;;;20.50;41.40;;;;;;5072644;28;19952;-63
2022/02/08 19:26:44;;;;;;;;;;;20.50;41.40;;;;;;5072730;28;19908;-63
2022/02/08 19:29:09;;;;;;;;;;;20.50;41.40;;;;;;5072829;28;19916;-64
2022/02/08 19:31:35;;;;;;;;;;;20.50;41.40;;;;;;5072680;28;19908;-63
2022/02/08 19:34:01;;;;;;;;;;;20.40;41.40;;;;;;5072573;28;19908;-63
2022/02/08 19:36:27;;;;;;;;;;;20.50;41.40;;;;;;5072850;28;19963;-63
2022/02/08 19:38:52;;;;;;;;;;;20.50;41.40;;;;;;5075143;28;20001;-63
2022/02/08 19:41:18;;;;;;;;;;;20.50;41.40;;;;;;5076241;28;20012;-64
2022/02/08 19:43:45;;;;;;;;;;;20.50;41.40;;;;;;5058132;28;20394;-64
2022/02/08 19:46:10;;;;;;;;;;;20.50;41.40;;;;;;5076093;28;20372;-63
2022/02/08 19:48:35;;;;;;;;;;;20.50;41.40;;;;;;5076203;28;19962;-64
2022/02/08 19:51:01;;;;;;;;;;;20.40;41.40;;;;;;5076067;28;19909;-63
2022/02/08 19:53:30;;;;;;;;;;;20.50;41.40;;;;;;5075942;28;19959;-64
2022/02/08 19:56:24;;;;;;;;;;;20.50;41.40;;;;;;5075977;28;19908;-64
2022/02/08 19:58:53;;;;;;;;;;;20.40;41.40;;;;;;5075888;28;20253;-64
2022/02/08 20:01:25;;;;;;;;;;;20.40;41.40;;;;;;5075645;28;19920;-64
2022/02/08 20:03:59;;;;;;;;;;;20.40;41.50;;;;;;5076053;28;19908;-63
2022/02/08 20:06:26;;;;;;;;;;;20.40;41.50;;;;;;5075919;28;19953;-64
2022/02/08 20:08:51;;;;;;;;;;;20.40;41.40;;;;;;5075777;28;19908;-64
2022/02/08 20:11:17;;;;;;;;;;;20.40;41.40;;;;;;5074448;28;19912;-63
2022/02/08 20:13:51;;;;;;;;;;;20.50;41.40;;;;;;5075675;28;20280;-64
2022/02/08 20:16:17;;;;;;;;;;;20.40;41.40;;;;;;5075593;28;19909;-64
2022/02/08 20:18:45;;;;;;;;;;;20.50;41.40;;;;;;5075443;28;19916;-63
2022/02/08 20:21:11;;;;;;;;;;;20.40;41.40;;;;;;5075608;28;19995;-63
2022/02/08 20:23:37;;;;;;;;;;;20.40;41.40;;;;;;5057493;28;19948;-64
2022/02/08 20:26:04;;;;;;;;;;;20.40;41.40;;;;;;5075372;28;19909;-63
2022/02/08 20:28:50;;;;;;;;;;;20.40;41.40;;;;;;5074515;28;20279;-64
2022/02/08 20:31:17;;;;;;;;;;;20.40;41.40;;;;;;5075863;28;19915;-63
2022/02/08 20:33:43;;;;;;;;;;;20.50;41.40;;;;;;5057280;28;19931;-63
2022/02/08 20:36:08;;;;;;;;;;;20.40;41.40;;;;;;5075297;28;20355;-64
2022/02/08 20:38:33;;;;;;;;;;;20.40;41.40;;;;;;5075011;28;20030;-63
2022/02/08 20:40:59;;;;;;;;;;;20.40;41.40;;;;;;5075269;28;19908;-63
2022/02/08 20:43:27;;;;;;;;;;;20.40;41.50;;;;;;5075082;28;19909;-63
2022/02/08 20:45:54;;;;;;;;;;;20.40;41.40;;;;;;5075012;28;19915;-64
2022/02/08 20:48:24;;;;;;;;;;;20.40;41.40;;;;;;5075301;28;19915;-63
2022/02/08 20:50:52;;;;;;;;;;;20.40;41.40;;;;;;5074125;28;20017;-63
2022/02/08 20:53:33;;;;;;;;;;;20.40;41.40;;;;;;5074863;28;20036;-63
2022/02/08 20:56:09;;;;;;;;;;;20.40;41.40;;;;;;5074947;28;19956;-64
2022/02/08 20:59:24;;;;;;;;;;;20.40;41.40;;;;;;5075141;28;19917;-63
2022/02/08 21:01:23;;;;;;;;;;;20.50;41.40;;;;;;5066126;28;20329;-63
2022/02/08 21:04:00;;;;;;;;;;;20.40;41.40;;;;;;5074795;28;19909;-63
2022/02/08 21:06:28;;;;;;;;;;;20.40;41.40;;;;;;5074821;28;19912;-64
2022/02/08 21:08:54;;;;;;;;;;;20.40;41.30;;;;;;5074740;28;19915;-64
2022/02/08 21:11:21;;;;;;;;;;;20.40;41.40;;;;;;5056665;28;19909;-63
2022/02/08 21:14:02;;;;;;;;;;;20.50;41.40;;;;;;5074626;28;19908;-65
2022/02/08 21:16:30;;;;;;;;;;;20.40;41.40;;;;;;5074431;28;19909;-64
2022/02/08 21:18:56;;;;;;;;;;;20.40;41.40;;;;;;5074333;28;19962;-63
2022/02/08 21:21:22;;;;;;;;;;;20.40;41.40;;;;;;5074466;28;19962;-64
2022/02/08 21:23:50;;;;;;;;;;;20.40;41.40;;;;;;5074373;28;20315;-63
2022/02/08 21:26:21;;;;;;;;;;;20.40;41.50;;;;;;5074319;28;19908;-64
2022/02/08 21:29:16;;;;;;;;;;;20.40;41.50;;;;;;5074599;28;19958;-64
2022/02/08 21:48:01;;;;;;;;;;;20.20;41.60;;;;;;5074139;28;20056;-64
2022/02/08 21:52:58;;;;;;;;;;;20.20;41.60;;;;;;5073941;28;19909;-64
2022/02/08 21:55:24;;;;;;;;;;;20.20;41.60;;;;;;5073938;28;19931;-64
2022/02/08 21:57:53;;;;;;;;;;;20.20;41.60;;;;;;5073773;28;20352;-64
2022/02/08 22:00:21;;;;;;;;;;;20.20;41.60;;;;;;5073256;28;20312;-64
2022/02/08 22:02:46;;;;;;;;;;;20.20;41.60;;;;;;5073687;28;20326;-63